Pagrindinis puslapis
METAR-TAF:

METAR-TAF

Oro uostai :

Bolonija, Italija

platuma: 44-32N, ilguma: 011-18E, Aukštis: 36 m

Dabartinis oras

Ataskaita buvo paskelbta 41 minutes, ne 17:20 UTC
Vėjas 6 kt iš Rytų/Pietryčių
Temperatūra 4°C
Drėgmė 93%
Slėgis 996 hPa
Matomumas 10 km arba daugiau
nėra debesų žemiau 1500 m ir nėra kamuolinių lietaus debesų

METAR: LIPE 231720Z 12006KT CAVOK 04/03 Q0996

Laikas: 19:01 (18:01 UTC)

Prognozė

Ataskaita buvo paskelbta 1 valandą ir 1 minutes, ne 17:00 UTC
Prognozė galioja nuo 23 metu 18 UTC su 24 metu 18 UTC
Vėjas 5 kt nuo kintamojo kryptimis
Matomumas: 8000 m
Išsisklaidę debesys ne aukštis 6000 ft

TAF: LIPE 231700Z 2318/2418 VRB05KT 8000 SCT060

Orai ataskaitas ir orų prognozės (METAR, TAF).

turimą stotys yra geltonos ir raudonos taškus žemėlapyje.

Perkelti pele per norėdami pamatyti stoties vardą.

Tada spustelėkite, norėdami matyti oro stebėjimo ir prognozės.

Norėdami pakeisti žemėlapį: spustelėkite ant žalios mygtukų su juodo kryžiaus žemyn,; žalią mygtuką su brūkšneliu, jei norite nutolinti; arba žalių rodyklių gretimoms žemėlapius.


METAR-TAF: